createdAt,value
2022-12-25T00:01:11.867Z,60.63
2022-12-25T00:03:48.528Z,60.83
2022-12-25T00:06:17.618Z,60.49
2022-12-25T00:08:45.989Z,60.22
2022-12-25T00:11:20.004Z,60.70
2022-12-25T00:13:49.127Z,59.91
2022-12-25T00:16:23.263Z,57.55
2022-12-25T00:18:51.704Z,56.73
2022-12-25T00:21:21.389Z,58.11
2022-12-25T00:23:55.434Z,60.15
2022-12-25T00:26:24.652Z,64.71
2022-12-25T00:28:57.418Z,70.27
2022-12-25T00:31:26.471Z,66.05
2022-12-25T00:33:54.990Z,63.30
2022-12-25T00:36:23.936Z,62.28
2022-12-25T00:38:51.886Z,61.88
2022-12-25T00:41:43.016Z,61.08
2022-12-25T00:44:14.064Z,60.84
2022-12-25T00:46:42.993Z,57.51
2022-12-25T00:49:12.327Z,55.65
2022-12-25T00:51:40.489Z,58.12
2022-12-25T00:54:08.809Z,59.50
2022-12-25T00:56:36.707Z,65.16
2022-12-25T00:59:04.555Z,69.68
2022-12-25T01:01:33.599Z,65.74
2022-12-25T01:04:01.699Z,62.22
2022-12-25T01:06:30.189Z,60.44
2022-12-25T01:09:17.547Z,56.77
2022-12-25T01:11:45.713Z,55.02
2022-12-25T01:14:14.505Z,58.04
2022-12-25T01:16:42.742Z,59.51
2022-12-25T01:19:11.318Z,64.11
2022-12-25T01:21:39.513Z,71.40
2022-12-25T01:24:07.676Z,68.25
2022-12-25T01:26:35.470Z,61.96
2022-12-25T01:29:03.986Z,57.39
2022-12-25T01:31:31.854Z,55.53
2022-12-25T01:33:59.761Z,56.27
2022-12-25T01:36:27.656Z,58.44
2022-12-25T01:38:55.829Z,60.18
2022-12-25T01:41:25.593Z,68.96
2022-12-25T01:44:28.988Z,72.27
2022-12-25T01:46:56.763Z,65.43
2022-12-25T01:49:26.514Z,57.43
2022-12-25T01:52:05.519Z,54.75
2022-12-25T01:54:41.496Z,56.49
2022-12-25T01:57:17.143Z,58.58
2022-12-25T01:59:46.229Z,65.85
2022-12-25T02:02:14.744Z,68.91
2022-12-25T02:04:52.428Z,63.17
2022-12-25T02:07:25.050Z,56.67
2022-12-25T02:09:53.679Z,54.72
2022-12-25T02:12:26.996Z,56.14
2022-12-25T02:15:05.793Z,59.65
2022-12-25T02:17:42.886Z,68.02
2022-12-25T02:20:34.012Z,69.76
2022-12-25T02:23:58.182Z,63.48
2022-12-25T02:27:02.924Z,54.50
2022-12-25T02:29:50.884Z,53.47
2022-12-25T02:32:39.153Z,55.37
2022-12-25T02:35:25.631Z,57.16
2022-12-25T02:38:14.373Z,59.29
2022-12-25T02:40:57.476Z,65.35
2022-12-25T02:43:53.460Z,71.58
2022-12-25T02:46:43.812Z,66.01
2022-12-25T02:49:42.754Z,61.05
2022-12-25T02:52:35.347Z,53.87
2022-12-25T02:55:33.165Z,52.84
2022-12-25T02:58:27.856Z,54.53
2022-12-25T03:01:24.032Z,57.35
2022-12-25T03:04:16.872Z,59.31
2022-12-25T03:07:12.025Z,68.70
2022-12-25T03:10:06.051Z,68.52
2022-12-25T03:13:17.072Z,64.31
2022-12-25T03:16:05.255Z,62.43
2022-12-25T03:18:34.562Z,60.47
2022-12-25T03:21:21.822Z,56.94
2022-12-25T03:24:16.696Z,54.78
2022-12-25T03:26:58.113Z,56.69
2022-12-25T03:29:52.679Z,58.79
2022-12-25T03:32:41.751Z,69.16
2022-12-25T03:35:33.441Z,71.61
2022-12-25T03:38:48.348Z,64.43
2022-12-25T03:42:01.631Z,55.80
2022-12-25T03:46:02.750Z,55.71
2022-12-25T03:48:55.266Z,60.96
2022-12-25T03:51:50.001Z,69.89
2022-12-25T03:54:45.885Z,68.70
2022-12-25T03:57:33.472Z,63.49
2022-12-25T04:00:20.455Z,55.92
2022-12-25T04:03:07.133Z,57.53
2022-12-25T04:05:53.742Z,61.17
2022-12-25T04:08:40.051Z,69.08
2022-12-25T04:11:26.495Z,68.43
2022-12-25T04:14:12.912Z,63.97
2022-12-25T04:16:59.464Z,61.42
2022-12-25T04:19:53.353Z,55.17
2022-12-25T04:22:40.209Z,55.05
2022-12-25T04:25:27.075Z,58.44
2022-12-25T04:28:19.263Z,63.56
2022-12-25T04:31:06.202Z,72.92
2022-12-25T04:33:52.731Z,66.53
2022-12-25T04:36:21.758Z,60.65
2022-12-25T04:38:49.614Z,56.04
2022-12-25T04:41:17.484Z,56.30
2022-12-25T04:43:45.333Z,58.69
2022-12-25T04:46:13.203Z,65.05
2022-12-25T04:48:41.046Z,67.99
2022-12-25T04:51:22.369Z,65.81
2022-12-25T04:53:51.976Z,61.86
2022-12-25T04:56:21.353Z,56.42
2022-12-25T04:58:49.607Z,54.67
2022-12-25T05:01:17.753Z,56.35
2022-12-25T05:03:45.868Z,59.57
2022-12-25T05:06:13.833Z,65.08
2022-12-25T05:08:41.731Z,68.96
2022-12-25T05:11:13.568Z,65.09
2022-12-25T05:13:41.801Z,62.48
2022-12-25T05:16:15.371Z,60.93
2022-12-25T05:18:44.277Z,57.47
2022-12-25T05:21:12.617Z,54.39
2022-12-25T05:23:48.752Z,56.10
2022-12-25T05:26:20.485Z,58.51
2022-12-25T05:28:49.533Z,65.76
2022-12-25T05:31:19.055Z,68.66
2022-12-25T05:33:51.545Z,63.76
2022-12-25T05:36:19.665Z,60.76
2022-12-25T05:38:47.517Z,56.71
2022-12-25T05:41:15.544Z,55.23
2022-12-25T05:43:43.331Z,57.17
2022-12-25T05:46:13.929Z,61.63
2022-12-25T05:48:42.122Z,67.72
2022-12-25T05:51:14.846Z,63.92
2022-12-25T05:53:43.889Z,54.97
2022-12-25T05:56:11.997Z,52.94
2022-12-25T05:58:41.031Z,54.99
2022-12-25T06:01:17.345Z,56.58
2022-12-25T06:03:45.681Z,57.05
2022-12-25T06:06:14.386Z,60.77
2022-12-25T06:08:42.820Z,66.58
2022-12-25T06:11:13.593Z,71.12
2022-12-25T06:13:42.233Z,69.05
2022-12-25T06:16:12.381Z,64.74
2022-12-25T06:18:46.404Z,60.36
2022-12-25T06:21:16.234Z,56.13
2022-12-25T06:23:45.426Z,55.72
2022-12-25T06:26:19.547Z,57.89
2022-12-25T06:28:48.143Z,63.13
2022-12-25T06:31:20.891Z,69.09
2022-12-25T06:33:50.254Z,66.62
2022-12-25T06:36:29.601Z,66.18
2022-12-25T06:39:01.323Z,64.51
2022-12-25T06:41:30.614Z,60.89
2022-12-25T06:44:01.630Z,57.27
2022-12-25T06:46:32.128Z,55.00
2022-12-25T06:49:00.783Z,56.71
2022-12-25T06:51:32.163Z,59.98
2022-12-25T06:54:04.106Z,65.94
2022-12-25T06:56:33.833Z,72.26
2022-12-25T06:59:09.004Z,67.16
2022-12-25T07:01:51.546Z,62.36
2022-12-25T07:04:33.621Z,56.23
2022-12-25T07:07:08.386Z,55.18
2022-12-25T07:09:42.575Z,56.87
2022-12-25T07:12:21.106Z,58.65
2022-12-25T07:14:50.267Z,60.89
2022-12-25T07:17:20.464Z,68.19
2022-12-25T07:19:49.230Z,72.62
2022-12-25T07:22:17.774Z,69.62
2022-12-25T07:24:45.665Z,62.33
2022-12-25T07:27:13.492Z,61.65
2022-12-25T07:29:41.412Z,56.64
2022-12-25T07:32:09.493Z,54.69
2022-12-25T07:34:37.407Z,57.12
2022-12-25T07:37:05.272Z,60.63
2022-12-25T07:39:34.675Z,67.71
2022-12-25T07:42:02.474Z,71.09
2022-12-25T07:44:30.395Z,64.66
2022-12-25T07:46:58.206Z,63.41
2022-12-25T07:49:26.174Z,59.80
2022-12-25T07:51:54.002Z,56.47
2022-12-25T07:54:21.902Z,55.53
2022-12-25T07:56:53.706Z,57.48
2022-12-25T07:59:21.649Z,59.41
2022-12-25T08:01:50.781Z,66.85
2022-12-25T08:04:19.297Z,67.95
2022-12-25T08:06:47.347Z,63.99
2022-12-25T08:09:15.285Z,62.23
2022-12-25T08:11:47.485Z,61.36
2022-12-25T08:14:15.898Z,60.94
2022-12-25T08:16:44.752Z,59.83
2022-12-25T08:19:14.592Z,56.24
2022-12-25T08:21:42.457Z,54.89
2022-12-25T08:24:10.920Z,56.51
2022-12-25T08:26:38.744Z,59.55
2022-12-25T08:29:11.361Z,63.58
2022-12-25T08:31:46.687Z,67.23
2022-12-25T08:34:15.547Z,64.21
2022-12-25T08:36:43.651Z,61.60
2022-12-25T08:39:11.944Z,61.30
2022-12-25T08:41:40.431Z,61.06
2022-12-25T08:44:08.393Z,59.87
2022-12-25T08:46:36.880Z,56.05
2022-12-25T08:49:04.964Z,54.66
2022-12-25T08:51:32.943Z,56.56
2022-12-25T08:54:01.296Z,58.88
2022-12-25T08:56:29.626Z,62.33
2022-12-25T08:58:57.683Z,67.84
2022-12-25T09:01:25.675Z,66.55
2022-12-25T09:03:53.659Z,64.04
2022-12-25T09:06:21.505Z,61.75
2022-12-25T09:08:50.063Z,56.79
2022-12-25T09:11:20.543Z,55.70
2022-12-25T09:13:49.450Z,56.55
2022-12-25T09:16:21.797Z,58.67
2022-12-25T09:18:50.685Z,64.73
2022-12-25T09:21:19.718Z,70.42
2022-12-25T09:23:47.704Z,63.84
2022-12-25T09:26:18.533Z,60.65
2022-12-25T09:28:51.933Z,56.67
2022-12-25T09:31:22.859Z,54.37
2022-12-25T09:33:52.041Z,56.26
2022-12-25T09:36:23.441Z,57.59
2022-12-25T09:38:52.858Z,63.17
2022-12-25T09:41:34.713Z,68.74
2022-12-25T09:44:10.085Z,62.75
2022-12-25T09:46:49.134Z,55.81
2022-12-25T09:49:38.153Z,53.99
2022-12-25T09:52:31.618Z,55.86
2022-12-25T09:55:20.050Z,58.86
2022-12-25T09:57:55.914Z,65.45
2022-12-25T10:00:34.166Z,70.78
2022-12-25T10:03:23.371Z,64.01
2022-12-25T10:06:33.403Z,56.89
2022-12-25T10:09:26.444Z,54.18
2022-12-25T10:12:30.366Z,56.92
2022-12-25T10:15:26.406Z,63.15
2022-12-25T10:18:53.799Z,65.47
2022-12-25T10:21:23.929Z,63.15
2022-12-25T10:24:33.442Z,59.82
2022-12-25T10:27:08.194Z,54.76
2022-12-25T10:29:36.323Z,56.48
2022-12-25T10:32:04.641Z,58.46
2022-12-25T10:34:33.490Z,59.29
2022-12-25T10:37:02.245Z,63.43
2022-12-25T10:39:30.243Z,68.42
2022-12-25T10:42:31.114Z,67.33
2022-12-25T10:45:08.344Z,64.74
2022-12-25T10:47:42.765Z,62.11
2022-12-25T10:50:24.844Z,60.42
2022-12-25T10:53:04.910Z,56.43
2022-12-25T10:55:33.839Z,56.22
2022-12-25T10:58:02.413Z,59.32
2022-12-25T11:00:33.126Z,63.52
2022-12-25T11:03:01.560Z,67.02
2022-12-25T11:05:35.055Z,65.48
2022-12-25T11:08:04.222Z,63.24
2022-12-25T11:10:38.196Z,62.08
2022-12-25T11:13:17.715Z,61.23
2022-12-25T11:15:49.333Z,60.24
2022-12-25T11:18:29.615Z,57.15
2022-12-25T11:21:02.846Z,55.55
2022-12-25T11:23:33.239Z,57.44
2022-12-25T11:26:07.997Z,59.64
2022-12-25T11:28:46.623Z,65.97
2022-12-25T11:31:20.654Z,67.81
2022-12-25T11:34:05.640Z,65.99
2022-12-25T11:36:51.834Z,63.90
2022-12-25T11:39:28.482Z,62.90
2022-12-25T11:42:14.374Z,60.98
2022-12-25T11:44:49.682Z,57.59
2022-12-25T11:47:45.171Z,56.77
2022-12-25T11:50:21.169Z,59.41
2022-12-25T11:52:58.471Z,64.59
2022-12-25T11:55:41.543Z,67.57
2022-12-25T11:58:36.233Z,66.22
2022-12-25T12:01:34.154Z,64.48
2022-12-25T12:04:08.758Z,62.77
2022-12-25T12:07:02.027Z,61.63
2022-12-25T12:10:06.456Z,61.27
2022-12-25T12:13:10.580Z,57.38
2022-12-25T12:15:47.505Z,55.67
2022-12-25T12:18:23.599Z,59.25
2022-12-25T12:21:18.094Z,63.90
2022-12-25T12:23:47.284Z,67.19
2022-12-25T12:26:25.086Z,65.71
2022-12-25T12:28:59.485Z,64.93
2022-12-25T12:31:43.036Z,64.04
2022-12-25T12:34:34.553Z,62.94
2022-12-25T12:37:08.402Z,62.53
2022-12-25T12:39:40.857Z,61.43
2022-12-25T12:42:21.414Z,60.98
2022-12-25T12:44:50.600Z,60.99
2022-12-25T12:47:47.029Z,60.08
2022-12-25T12:50:33.165Z,60.24
2022-12-25T12:53:22.200Z,60.74
2022-12-25T12:55:52.130Z,60.71
2022-12-25T12:58:40.488Z,56.46
2022-12-25T13:01:26.655Z,54.71
2022-12-25T13:04:34.861Z,56.46
2022-12-25T13:07:24.910Z,59.53
2022-12-25T13:10:13.792Z,65.01
2022-12-25T13:12:41.930Z,68.61
2022-12-25T13:15:21.393Z,67.58
2022-12-25T13:17:50.226Z,65.10
2022-12-25T13:20:33.461Z,63.14
2022-12-25T13:23:01.400Z,62.59
2022-12-25T13:25:29.440Z,62.16
2022-12-25T13:27:59.639Z,61.68
2022-12-25T13:30:27.844Z,61.28
2022-12-25T13:33:00.282Z,61.12
2022-12-25T13:35:28.520Z,60.84
2022-12-25T13:37:56.847Z,60.55
2022-12-25T13:40:28.577Z,60.29
2022-12-25T13:43:01.912Z,57.56
2022-12-25T13:45:31.389Z,56.54
2022-12-25T13:48:15.928Z,58.29
2022-12-25T13:50:48.648Z,62.63
2022-12-25T13:53:18.192Z,66.02
2022-12-25T13:55:56.030Z,65.35
2022-12-25T13:58:31.635Z,64.33
2022-12-25T14:01:02.817Z,63.25
2022-12-25T14:03:46.217Z,62.54
2022-12-25T14:06:32.597Z,61.77
2022-12-25T14:09:00.969Z,61.25
2022-12-25T14:11:32.373Z,60.86
2022-12-25T14:14:12.350Z,60.32
2022-12-25T14:16:43.814Z,59.83
2022-12-25T14:19:29.884Z,57.41
2022-12-25T14:22:22.727Z,56.02
2022-12-25T14:24:51.255Z,57.82
2022-12-25T14:27:32.680Z,62.94
2022-12-25T14:30:01.689Z,66.85
2022-12-25T14:32:38.524Z,66.24
2022-12-25T14:35:07.175Z,65.19
2022-12-25T14:37:37.373Z,63.80
2022-12-25T14:40:26.315Z,62.50
2022-12-25T14:43:17.234Z,61.84
2022-12-25T14:45:59.981Z,61.62
2022-12-25T14:48:31.979Z,61.00
2022-12-25T14:51:04.184Z,60.57
2022-12-25T14:53:49.272Z,60.76
2022-12-25T14:56:24.603Z,60.61
2022-12-25T14:58:57.418Z,60.66
2022-12-25T15:01:36.327Z,60.72
2022-12-25T15:04:10.227Z,61.21
2022-12-25T15:07:00.040Z,60.97
2022-12-25T15:09:30.215Z,63.36
2022-12-25T15:11:58.211Z,60.72
2022-12-25T15:14:27.599Z,56.02
2022-12-25T15:17:00.708Z,54.69
2022-12-25T15:19:38.149Z,56.36
2022-12-25T15:22:07.149Z,58.77
2022-12-25T15:24:35.664Z,68.19
2022-12-25T15:27:05.490Z,69.57
2022-12-25T15:30:08.030Z,64.02
2022-12-25T15:32:24.328Z,56.02
2022-12-25T15:34:54.292Z,54.80
2022-12-25T15:37:22.144Z,56.84
2022-12-25T15:39:50.069Z,59.18
2022-12-25T15:42:23.117Z,64.91
2022-12-25T15:44:52.018Z,69.76
2022-12-25T15:47:20.374Z,65.16
2022-12-25T15:49:49.211Z,60.68
2022-12-25T15:52:18.360Z,56.27
2022-12-25T15:54:46.379Z,55.19
2022-12-25T15:57:22.476Z,57.43
2022-12-25T15:59:50.383Z,62.83
2022-12-25T16:02:21.181Z,66.24
2022-12-25T16:04:51.207Z,64.11
2022-12-25T16:07:23.637Z,62.42
2022-12-25T16:09:52.583Z,60.64
2022-12-25T16:12:20.772Z,57.75
2022-12-25T16:14:48.797Z,56.62
2022-12-25T16:17:16.850Z,58.51
2022-12-25T16:19:44.983Z,59.57
2022-12-25T16:22:18.646Z,64.22
2022-12-25T16:24:46.709Z,67.51
2022-12-25T16:27:14.916Z,67.25
2022-12-25T16:29:43.308Z,65.10
2022-12-25T16:32:13.492Z,59.74
2022-12-25T16:34:41.570Z,56.61
2022-12-25T16:37:09.502Z,55.79
2022-12-25T16:39:38.409Z,58.07
2022-12-25T16:42:06.489Z,62.24
2022-12-25T16:44:37.637Z,65.67
2022-12-25T16:47:05.816Z,65.47
2022-12-25T16:49:33.897Z,63.90
2022-12-25T16:52:02.760Z,62.94
2022-12-25T16:54:30.657Z,62.06
2022-12-25T16:56:58.546Z,61.56
2022-12-25T16:59:29.585Z,61.49
2022-12-25T17:01:57.627Z,61.14
2022-12-25T17:04:27.626Z,60.27
2022-12-25T17:06:56.371Z,60.13
2022-12-25T17:09:24.965Z,60.26
2022-12-25T17:11:53.024Z,59.86
2022-12-25T17:14:21.684Z,57.37
2022-12-25T17:16:55.023Z,56.18
2022-12-25T17:19:26.539Z,58.84
2022-12-25T17:21:57.442Z,66.75
2022-12-25T17:24:28.163Z,68.83
2022-12-25T17:26:56.202Z,62.56
2022-12-25T17:29:30.726Z,56.20
2022-12-25T17:31:58.778Z,54.09
2022-12-25T17:34:27.387Z,55.92
2022-12-25T17:36:59.213Z,57.88
2022-12-25T17:39:27.452Z,65.77
2022-12-25T17:41:55.420Z,68.52
2022-12-25T17:44:23.501Z,64.30
2022-12-25T17:46:51.762Z,56.96
2022-12-25T17:49:21.980Z,54.37
2022-12-25T17:51:50.452Z,57.54
2022-12-25T17:54:18.571Z,64.86
2022-12-25T17:56:49.629Z,68.23
2022-12-25T17:59:19.039Z,63.53
2022-12-25T18:01:48.552Z,61.05
2022-12-25T18:04:17.168Z,56.88
2022-12-25T18:06:45.835Z,54.76
2022-12-25T18:09:17.886Z,57.15
2022-12-25T18:11:46.159Z,59.84
2022-12-25T18:14:16.837Z,67.30
2022-12-25T18:16:46.165Z,69.79
2022-12-25T18:19:15.802Z,63.64
2022-12-25T18:21:44.672Z,61.15
2022-12-25T18:24:13.408Z,60.52
2022-12-25T18:26:41.375Z,57.65
2022-12-25T18:29:09.655Z,56.05
2022-12-25T18:31:37.735Z,57.94
2022-12-25T18:34:05.642Z,62.69
2022-12-25T18:36:34.148Z,66.09
2022-12-25T18:39:05.959Z,64.86
2022-12-25T18:41:54.497Z,63.59
2022-12-25T18:44:22.443Z,63.05
2022-12-25T18:46:50.383Z,62.58
2022-12-25T18:49:18.232Z,63.39
2022-12-25T18:51:46.085Z,64.19
2022-12-25T18:54:13.914Z,60.14
2022-12-25T18:56:42.026Z,54.60
2022-12-25T18:59:09.999Z,53.89
2022-12-25T19:01:39.974Z,56.04
2022-12-25T19:04:12.980Z,59.27
2022-12-25T19:06:43.780Z,66.63
2022-12-25T19:09:11.977Z,68.23
2022-12-25T19:11:46.504Z,62.99
2022-12-25T19:14:15.928Z,61.62
2022-12-25T19:16:44.903Z,60.81
2022-12-25T19:19:14.491Z,59.82
2022-12-25T19:21:42.297Z,57.20
2022-12-25T19:24:10.518Z,56.25
2022-12-25T19:26:38.815Z,58.77
2022-12-25T19:29:07.112Z,63.51
2022-12-25T19:31:35.303Z,67.02
2022-12-25T19:34:04.273Z,65.94
2022-12-25T19:36:32.767Z,64.99
2022-12-25T19:39:01.094Z,64.03
2022-12-25T19:41:29.177Z,63.48
2022-12-25T19:43:57.461Z,63.38
2022-12-25T19:46:36.614Z,63.25
2022-12-25T19:49:05.308Z,62.65
2022-12-25T19:51:44.672Z,62.06
2022-12-25T19:54:20.748Z,62.25
2022-12-25T19:56:49.397Z,62.16
2022-12-25T19:59:17.385Z,62.20
2022-12-25T20:01:45.645Z,62.33
2022-12-25T20:04:15.346Z,62.30
2022-12-25T20:06:44.437Z,62.21
2022-12-25T20:09:21.485Z,61.85
2022-12-25T20:11:49.979Z,61.66
2022-12-25T20:14:18.394Z,62.12
2022-12-25T20:16:47.079Z,62.08
2022-12-25T20:19:15.770Z,62.59
2022-12-25T20:21:43.869Z,62.53
2022-12-25T20:24:12.128Z,62.38
2022-12-25T20:26:40.152Z,62.34
2022-12-25T20:29:08.274Z,62.19
2022-12-25T20:31:36.532Z,62.16
2022-12-25T20:34:08.926Z,61.83
2022-12-25T20:36:38.256Z,62.05
2022-12-25T20:39:10.247Z,61.84
2022-12-25T20:41:39.891Z,61.77
2022-12-25T20:44:10.503Z,61.78
2022-12-25T20:46:38.831Z,61.91
2022-12-25T20:49:06.928Z,61.77
2022-12-25T20:51:35.130Z,61.46
2022-12-25T20:54:08.506Z,61.02
2022-12-25T20:56:36.957Z,61.07
2022-12-25T20:59:04.779Z,61.54
2022-12-25T21:01:32.723Z,61.69
2022-12-25T21:04:00.722Z,61.51
2022-12-25T21:06:28.607Z,62.24
2022-12-25T21:08:56.534Z,62.33
2022-12-25T21:11:24.481Z,62.24
2022-12-25T21:13:52.645Z,62.48
2022-12-25T21:16:22.981Z,63.06
2022-12-25T21:18:53.679Z,63.51
2022-12-25T21:21:22.851Z,63.33
2022-12-25T21:23:51.187Z,62.77
2022-12-25T21:26:23.441Z,62.67
2022-12-25T21:28:55.786Z,62.67
2022-12-25T21:31:25.711Z,62.45
2022-12-25T21:33:55.919Z,62.61
2022-12-25T21:36:31.022Z,62.34
2022-12-25T21:39:03.281Z,62.61
2022-12-25T21:41:34.308Z,62.58
2022-12-25T21:44:02.413Z,62.72
2022-12-25T21:46:31.009Z,63.06
2022-12-25T21:48:59.973Z,63.67
2022-12-25T21:51:50.170Z,63.99
2022-12-25T21:54:21.108Z,63.78
2022-12-25T21:56:50.431Z,63.53
2022-12-25T21:59:22.036Z,63.37
2022-12-25T22:01:52.056Z,64.02
2022-12-25T22:04:23.457Z,63.58
2022-12-25T22:07:10.786Z,62.92
2022-12-25T22:09:38.989Z,61.91
2022-12-25T22:12:32.110Z,62.00
2022-12-25T22:15:09.928Z,62.09
2022-12-25T22:18:01.785Z,62.07
2022-12-25T22:20:36.089Z,61.74
2022-12-25T22:23:05.258Z,62.29
2022-12-25T22:25:33.262Z,62.35
2022-12-25T22:28:01.216Z,63.59
2022-12-25T22:30:29.597Z,62.86
2022-12-25T22:32:58.402Z,62.35
2022-12-25T22:35:26.542Z,61.76
2022-12-25T22:37:54.885Z,61.41
2022-12-25T22:40:22.850Z,61.14
2022-12-25T22:42:55.542Z,60.74
2022-12-25T22:45:24.344Z,60.44
2022-12-25T22:47:52.273Z,60.71
2022-12-25T22:50:20.388Z,60.35
2022-12-25T22:52:48.243Z,60.15
2022-12-25T22:55:18.612Z,59.92
2022-12-25T22:57:46.864Z,60.05
2022-12-25T23:00:14.869Z,59.93
2022-12-25T23:02:42.921Z,59.93
2022-12-25T23:05:11.203Z,59.97
2022-12-25T23:07:39.084Z,60.22
2022-12-25T23:10:08.258Z,60.47
2022-12-25T23:12:54.922Z,60.38
2022-12-25T23:15:23.015Z,59.85
2022-12-25T23:18:09.880Z,59.86
2022-12-25T23:20:56.788Z,59.55
2022-12-25T23:23:43.342Z,59.71
2022-12-25T23:26:12.948Z,59.56
2022-12-25T23:29:01.856Z,59.82
2022-12-25T23:31:35.759Z,59.74
2022-12-25T23:34:06.015Z,59.63
2022-12-25T23:36:34.773Z,59.94
2022-12-25T23:39:09.651Z,59.68
2022-12-25T23:41:40.546Z,59.75
2022-12-25T23:44:11.252Z,59.98
2022-12-25T23:46:40.399Z,60.22
2022-12-25T23:49:10.455Z,60.07
2022-12-25T23:51:45.278Z,60.01
2022-12-25T23:54:18.267Z,59.80
2022-12-25T23:56:46.578Z,59.69
2022-12-25T23:59:15.257Z,60.02
